createdAt,value
2019-02-25T00:01:48.735Z,9.20
2019-02-25T00:04:18.977Z,9.27
2019-02-25T00:06:49.185Z,9.43
2019-02-25T00:09:19.441Z,9.53
2019-02-25T00:11:49.647Z,9.73
2019-02-25T00:14:19.897Z,9.93
2019-02-25T00:16:50.085Z,8.53
2019-02-25T00:19:20.348Z,10.50
2019-02-25T00:21:50.549Z,9.60
2019-02-25T00:24:20.796Z,10.17
2019-02-25T00:26:51.025Z,10.97
2019-02-25T00:29:21.260Z,10.97
2019-02-25T00:31:51.484Z,9.97
2019-02-25T00:34:21.727Z,9.17
2019-02-25T00:36:51.960Z,10.53
2019-02-25T00:39:22.211Z,9.47
2019-02-25T00:41:52.324Z,10.80
2019-02-25T00:44:22.593Z,9.97
2019-02-25T00:46:52.797Z,11.10
2019-02-25T00:49:22.992Z,10.77
2019-02-25T00:51:53.186Z,11.70
2019-02-25T00:54:23.460Z,12.53
2019-02-25T00:56:53.648Z,12.10
2019-02-25T00:59:24.874Z,12.33
2019-02-25T01:01:55.080Z,11.30
2019-02-25T01:04:25.260Z,11.27
2019-02-25T01:06:55.462Z,13.10
2019-02-25T01:09:25.708Z,14.57
2019-02-25T01:11:55.820Z,14.27
2019-02-25T01:14:25.993Z,15.53
2019-02-25T01:16:56.122Z,14.43
2019-02-25T01:19:26.225Z,13.90
2019-02-25T01:21:56.430Z,13.27
2019-02-25T01:24:26.661Z,14.97
2019-02-25T01:26:56.794Z,13.20
2019-02-25T01:29:27.053Z,13.53
2019-02-25T01:31:57.173Z,12.97
2019-02-25T01:34:27.414Z,14.07
2019-02-25T01:36:57.607Z,13.87
2019-02-25T01:39:27.800Z,12.93
2019-02-25T01:41:58.005Z,11.97
2019-02-25T01:44:28.176Z,12.70
2019-02-25T01:46:58.327Z,13.10
2019-02-25T01:49:28.482Z,11.90
2019-02-25T01:51:58.672Z,12.33
2019-02-25T01:54:28.767Z,12.70
2019-02-25T01:56:58.905Z,12.07
2019-02-25T01:59:30.033Z,11.40
2019-02-25T02:02:00.175Z,11.77
2019-02-25T02:04:30.345Z,12.13
2019-02-25T02:07:00.470Z,11.90
2019-02-25T02:09:30.719Z,12.47
2019-02-25T02:12:00.785Z,11.63
2019-02-25T02:14:31.014Z,11.40
2019-02-25T02:17:01.207Z,12.23
2019-02-25T02:19:31.474Z,13.07
2019-02-25T02:22:01.679Z,12.30
2019-02-25T02:24:31.862Z,13.60
2019-02-25T02:27:02.000Z,12.83
2019-02-25T02:29:32.257Z,12.37
2019-02-25T02:32:02.475Z,13.37
2019-02-25T02:34:32.720Z,12.80
2019-02-25T02:37:02.860Z,13.10
2019-02-25T02:39:33.119Z,12.87
2019-02-25T02:42:17.904Z,12.80
2019-02-25T02:44:50.372Z,13.40
2019-02-25T02:47:23.525Z,14.03
2019-02-25T02:49:53.711Z,13.90
2019-02-25T02:52:23.905Z,14.33
2019-02-25T02:54:54.145Z,15.37
2019-02-25T02:57:24.355Z,15.97
2019-02-25T02:59:55.652Z,15.77
2019-02-25T03:02:25.877Z,16.13
2019-02-25T03:04:56.121Z,17.10
2019-02-25T03:07:26.306Z,17.07
2019-02-25T03:09:58.800Z,16.47
2019-02-25T03:12:28.443Z,15.77
2019-02-25T03:14:58.669Z,15.07
2019-02-25T03:17:28.868Z,17.40
2019-02-25T03:19:59.100Z,14.50
2019-02-25T03:22:29.397Z,14.50
2019-02-25T03:24:59.561Z,14.77
2019-02-25T03:27:29.763Z,14.03
2019-02-25T03:29:59.920Z,14.47
2019-02-25T03:32:30.086Z,11.97
2019-02-25T03:35:00.321Z,12.10
2019-02-25T03:37:30.420Z,13.20
2019-02-25T03:40:00.602Z,13.60
2019-02-25T03:42:30.775Z,12.30
2019-02-25T03:45:00.860Z,13.03
2019-02-25T03:47:30.911Z,12.00
2019-02-25T03:50:01.092Z,14.27
2019-02-25T03:52:31.213Z,12.30
2019-02-25T03:55:01.410Z,12.30
2019-02-25T03:57:31.588Z,11.97
2019-02-25T04:00:02.689Z,11.67
2019-02-25T04:02:32.810Z,13.07
2019-02-25T04:05:03.070Z,13.37
2019-02-25T04:07:33.257Z,15.40
2019-02-25T04:10:04.506Z,11.43
2019-02-25T04:12:34.705Z,11.07
2019-02-25T04:15:08.145Z,12.17
2019-02-25T04:17:38.316Z,11.30
2019-02-25T04:20:13.730Z,11.17
2019-02-25T04:22:43.953Z,11.53
2019-02-25T04:25:14.589Z,10.77
2019-02-25T04:27:44.802Z,14.37
2019-02-25T04:30:16.162Z,11.73
2019-02-25T04:32:46.295Z,12.20
2019-02-25T04:35:16.553Z,12.87
2019-02-25T04:37:46.764Z,12.30
2019-02-25T04:40:17.033Z,11.40
2019-02-25T04:42:47.215Z,12.70
2019-02-25T04:45:21.229Z,11.53
2019-02-25T04:47:51.610Z,10.47
2019-02-25T04:50:21.852Z,11.43
2019-02-25T04:52:52.068Z,13.57
2019-02-25T04:55:22.317Z,12.07
2019-02-25T04:57:52.511Z,10.77
2019-02-25T05:00:25.850Z,10.27
2019-02-25T05:02:56.053Z,13.00
2019-02-25T05:05:26.298Z,12.90
2019-02-25T05:07:56.434Z,11.90
2019-02-25T05:10:26.684Z,13.40
2019-02-25T05:12:58.448Z,11.03
2019-02-25T05:15:30.290Z,13.13
2019-02-25T05:18:00.489Z,12.67
2019-02-25T05:20:30.720Z,10.67
2019-02-25T05:23:00.940Z,11.67
2019-02-25T05:25:31.193Z,12.17
2019-02-25T05:28:01.318Z,11.77
2019-02-25T05:30:31.555Z,16.80
2019-02-25T05:33:01.734Z,14.07
2019-02-25T05:35:31.919Z,11.90
2019-02-25T05:38:01.947Z,14.57
2019-02-25T05:40:32.126Z,13.80
2019-02-25T05:43:02.301Z,14.77
2019-02-25T05:45:32.539Z,18.13
2019-02-25T05:48:02.738Z,14.60
2019-02-25T05:50:32.911Z,14.70
2019-02-25T05:53:02.966Z,13.57
2019-02-25T05:55:33.138Z,12.20
2019-02-25T05:58:03.363Z,12.17
2019-02-25T06:00:35.649Z,11.70
2019-02-25T06:03:05.700Z,10.70
2019-02-25T06:05:38.405Z,10.33
2019-02-25T06:08:08.501Z,11.10
2019-02-25T06:10:38.599Z,11.83
2019-02-25T06:13:08.776Z,11.63
2019-02-25T06:15:38.909Z,11.17
2019-02-25T06:18:09.044Z,11.70
2019-02-25T06:20:39.209Z,11.50
2019-02-25T06:23:09.394Z,12.10
2019-02-25T06:25:39.929Z,11.77
2019-02-25T06:28:10.010Z,12.80
2019-02-25T06:30:40.210Z,12.23
2019-02-25T06:33:10.409Z,11.43
2019-02-25T06:35:40.570Z,11.10
2019-02-25T06:38:10.785Z,14.00
2019-02-25T06:40:41.061Z,10.67
2019-02-25T06:43:11.278Z,11.07
2019-02-25T06:45:41.520Z,13.47
2019-02-25T06:48:11.743Z,12.93
2019-02-25T06:50:42.000Z,13.10
2019-02-25T06:53:12.208Z,15.13
2019-02-25T06:55:42.462Z,12.50
2019-02-25T06:58:12.670Z,12.67
2019-02-25T07:00:43.883Z,19.20
2019-02-25T07:03:14.076Z,11.37
2019-02-25T07:05:48.827Z,12.17
2019-02-25T07:08:20.600Z,12.63
2019-02-25T07:11:08.555Z,14.33
2019-02-25T07:13:49.108Z,10.70
2019-02-25T07:16:23.886Z,12.60
2019-02-25T07:19:01.619Z,12.07
2019-02-25T07:21:42.148Z,11.53
2019-02-25T07:24:31.769Z,12.43
2019-02-25T07:27:06.259Z,13.23
2019-02-25T07:29:41.004Z,14.27
2019-02-25T07:32:12.843Z,12.60
2019-02-25T07:34:44.624Z,13.73
2019-02-25T07:37:19.388Z,12.47
2019-02-25T07:39:51.146Z,13.73
2019-02-25T07:42:37.663Z,18.60
2019-02-25T07:45:16.902Z,13.67
2019-02-25T07:47:48.728Z,15.87
2019-02-25T07:50:26.546Z,15.97
2019-02-25T07:52:58.238Z,16.27
2019-02-25T07:55:30.012Z,16.47
2019-02-25T07:58:16.816Z,21.40
2019-02-25T08:00:52.449Z,23.13
2019-02-25T08:03:26.819Z,17.77
2019-02-25T08:06:16.594Z,16.17
2019-02-25T08:09:04.810Z,16.20
2019-02-25T08:11:36.456Z,16.63
2019-02-25T08:14:13.601Z,13.80
2019-02-25T08:16:54.089Z,12.37
2019-02-25T08:19:40.753Z,11.67
2019-02-25T08:22:27.552Z,12.80
2019-02-25T08:25:17.719Z,13.23
2019-02-25T08:28:01.174Z,11.87
2019-02-25T08:30:34.418Z,12.10
2019-02-25T08:33:12.176Z,11.57
2019-02-25T08:36:04.892Z,11.70
2019-02-25T08:38:54.521Z,11.63
2019-02-25T08:41:29.092Z,10.90
2019-02-25T08:44:01.066Z,11.70
2019-02-25T08:46:33.032Z,11.23
2019-02-25T08:49:04.832Z,10.60
2019-02-25T08:51:35.092Z,10.90
2019-02-25T08:54:05.294Z,10.93
2019-02-25T08:56:35.611Z,11.17
2019-02-25T08:59:05.820Z,9.17
2019-02-25T09:01:37.132Z,10.60
2019-02-25T09:04:07.331Z,14.03
2019-02-25T09:06:37.604Z,10.37
2019-02-25T09:09:09.307Z,11.17
2019-02-25T09:11:40.552Z,13.07
2019-02-25T09:14:10.766Z,11.73
2019-02-25T09:16:41.490Z,11.80
2019-02-25T09:19:11.744Z,11.80
2019-02-25T09:21:42.331Z,12.50
2019-02-25T09:24:12.508Z,12.47
2019-02-25T09:26:42.790Z,11.47
2019-02-25T09:29:12.965Z,12.83
2019-02-25T09:31:43.235Z,12.23
2019-02-25T09:34:13.447Z,12.53
2019-02-25T09:36:43.705Z,13.67
2019-02-25T09:39:16.597Z,15.17
2019-02-25T09:41:46.398Z,13.33
2019-02-25T09:44:16.604Z,14.07
2019-02-25T09:46:46.933Z,12.97
2019-02-25T09:49:18.573Z,13.20
2019-02-25T09:51:49.397Z,12.37
2019-02-25T09:54:20.880Z,15.17
2019-02-25T09:56:51.295Z,17.37
2019-02-25T09:59:24.367Z,15.57
2019-02-25T10:02:06.816Z,15.27
2019-02-25T10:04:38.309Z,13.93
2019-02-25T10:07:09.477Z,14.53
2019-02-25T10:09:40.914Z,15.00
2019-02-25T10:12:13.227Z,14.10
2019-02-25T10:14:46.379Z,14.90
2019-02-25T10:17:23.486Z,15.03
2019-02-25T10:19:48.668Z,15.30
2019-02-25T10:22:18.936Z,14.47
2019-02-25T10:24:49.048Z,12.90
2019-02-25T10:27:20.838Z,16.30
2019-02-25T10:29:51.273Z,13.67
2019-02-25T10:32:25.231Z,17.17
2019-02-25T10:34:58.646Z,19.77
2019-02-25T10:37:31.023Z,17.13
2019-02-25T10:40:12.911Z,17.27
2019-02-25T10:42:48.976Z,16.93
2019-02-25T10:45:25.067Z,16.97
2019-02-25T10:47:58.595Z,14.87
2019-02-25T10:50:30.986Z,15.47
2019-02-25T10:53:03.692Z,15.80
2019-02-25T10:55:39.959Z,15.60
2019-02-25T10:58:11.102Z,15.67
2019-02-25T11:00:42.128Z,15.80
2019-02-25T11:03:15.308Z,17.95
2019-02-25T11:05:47.030Z,19.57
2019-02-25T11:08:18.931Z,17.13
2019-02-25T11:10:52.876Z,14.83
2019-02-25T11:13:22.730Z,14.10
2019-02-25T11:15:52.924Z,13.57
2019-02-25T11:18:26.650Z,13.57
2019-02-25T11:20:58.959Z,15.27
2019-02-25T11:23:29.545Z,15.93
2019-02-25T11:26:02.209Z,15.17
2019-02-25T11:28:34.344Z,15.00
2019-02-25T11:31:07.369Z,14.23
2019-02-25T11:34:15.649Z,15.33
2019-02-25T11:36:45.878Z,15.93
2019-02-25T11:39:17.115Z,15.77
2019-02-25T11:41:47.738Z,15.10
2019-02-25T11:44:21.092Z,15.57
2019-02-25T11:46:51.105Z,15.50
2019-02-25T11:49:22.871Z,21.02
2019-02-25T11:51:53.192Z,20.27
2019-02-25T11:54:24.315Z,16.77
2019-02-25T11:56:54.585Z,16.87
2019-02-25T11:59:26.409Z,17.27
2019-02-25T12:01:56.540Z,19.13
2019-02-25T12:04:30.938Z,20.17
2019-02-25T12:07:01.081Z,18.73
2019-02-25T12:09:32.874Z,18.33
2019-02-25T12:12:03.118Z,20.73
2019-02-25T12:14:33.433Z,17.33
2019-02-25T12:17:05.148Z,20.83
2019-02-25T12:19:35.319Z,17.83
2019-02-25T12:22:05.514Z,18.03
2019-02-25T12:24:38.532Z,17.27
2019-02-25T12:27:09.000Z,18.23
2019-02-25T12:29:39.676Z,18.67
2019-02-25T12:32:11.658Z,18.93
2019-02-25T12:34:41.944Z,17.07
2019-02-25T12:37:12.174Z,21.75
2019-02-25T12:39:42.382Z,18.53
2019-02-25T12:42:12.481Z,18.87
2019-02-25T12:44:42.973Z,17.63
2019-02-25T12:47:13.281Z,19.30
2019-02-25T12:49:43.652Z,16.70
2019-02-25T12:52:13.866Z,19.83
2019-02-25T12:54:44.126Z,20.07
2019-02-25T12:57:14.447Z,19.77
2019-02-25T12:59:44.799Z,18.87
2019-02-25T13:02:14.931Z,21.07
2019-02-25T13:04:45.242Z,21.93
2019-02-25T13:07:15.358Z,21.60
2019-02-25T13:09:45.850Z,22.63
2019-02-25T13:12:15.980Z,23.43
2019-02-25T13:14:46.210Z,19.30
2019-02-25T13:17:16.427Z,19.43
2019-02-25T13:19:46.779Z,19.27
2019-02-25T13:22:17.620Z,19.93
2019-02-25T13:24:49.955Z,21.43
2019-02-25T13:27:20.126Z,24.37
2019-02-25T13:29:50.504Z,21.87
2019-02-25T13:32:20.696Z,21.30
2019-02-25T13:34:51.263Z,22.90
2019-02-25T13:37:21.525Z,24.77
2019-02-25T13:39:51.931Z,22.20
2019-02-25T13:42:23.569Z,25.77
2019-02-25T13:44:53.953Z,19.93
2019-02-25T13:47:30.396Z,25.47
2019-02-25T13:50:00.739Z,22.27
2019-02-25T13:52:30.967Z,23.87
2019-02-25T13:55:01.335Z,23.33
2019-02-25T13:57:31.583Z,23.63
2019-02-25T14:00:02.215Z,23.10
2019-02-25T14:02:36.032Z,23.07
2019-02-25T14:05:06.711Z,22.77
2019-02-25T14:07:38.494Z,24.67
2019-02-25T14:10:11.516Z,27.00
2019-02-25T14:12:43.862Z,23.33
2019-02-25T14:15:23.129Z,23.50
2019-02-25T14:17:53.315Z,28.17
2019-02-25T14:20:24.874Z,23.30
2019-02-25T14:23:00.246Z,23.40
2019-02-25T14:25:33.583Z,28.10
2019-02-25T14:28:07.934Z,22.73
2019-02-25T14:30:37.465Z,23.63
2019-02-25T14:33:12.782Z,24.17
2019-02-25T14:35:59.111Z,25.67
2019-02-25T14:38:41.439Z,27.63
2019-02-25T14:41:21.075Z,25.10
2019-02-25T14:43:51.555Z,25.57
2019-02-25T14:46:24.943Z,26.70
2019-02-25T14:48:54.842Z,29.80
2019-02-25T14:51:25.183Z,29.93
2019-02-25T14:53:55.559Z,31.80
2019-02-25T14:56:26.014Z,30.93
2019-02-25T14:58:57.298Z,37.15
2019-02-25T15:01:29.852Z,31.27
2019-02-25T15:04:02.221Z,34.40
2019-02-25T15:06:34.264Z,29.83
2019-02-25T15:09:08.267Z,36.50
2019-02-25T15:11:38.184Z,28.00
2019-02-25T15:14:10.466Z,36.55
2019-02-25T15:16:40.434Z,30.63
2019-02-25T15:19:17.130Z,36.07
2019-02-25T15:21:50.097Z,34.33
2019-02-25T15:24:20.313Z,39.07
2019-02-25T15:26:51.747Z,33.43
2019-02-25T15:29:21.984Z,29.20
2019-02-25T15:31:53.038Z,29.63
2019-02-25T15:34:24.385Z,35.57
2019-02-25T15:36:56.449Z,33.90
2019-02-25T15:39:26.647Z,28.87
2019-02-25T15:42:00.815Z,28.40
2019-02-25T15:44:30.989Z,31.90
2019-02-25T15:47:02.537Z,33.03
2019-02-25T15:49:34.044Z,30.50
2019-02-25T15:52:07.877Z,27.53
2019-02-25T15:54:39.372Z,25.10
2019-02-25T15:57:10.023Z,26.57
2019-02-25T15:59:40.210Z,26.53
2019-02-25T16:02:14.093Z,27.77
2019-02-25T16:04:44.124Z,27.40
2019-02-25T16:07:15.482Z,29.10
2019-02-25T16:09:45.865Z,34.37
2019-02-25T16:12:16.111Z,36.67
2019-02-25T16:14:47.216Z,36.60
2019-02-25T16:17:18.276Z,36.63
2019-02-25T16:19:50.876Z,38.20
2019-02-25T16:22:20.510Z,33.60
2019-02-25T16:24:51.228Z,30.17
2019-02-25T16:27:23.128Z,29.13
2019-02-25T16:29:53.741Z,32.10
2019-02-25T16:32:26.231Z,36.67
2019-02-25T16:34:58.554Z,40.10
2019-02-25T16:37:29.129Z,43.90
2019-02-25T16:40:01.288Z,38.43
2019-02-25T16:42:32.416Z,30.23
2019-02-25T16:45:06.302Z,28.03
2019-02-25T16:47:37.764Z,24.43
2019-02-25T16:50:14.241Z,27.03
2019-02-25T16:52:46.844Z,22.73
2019-02-25T16:55:25.020Z,22.47
2019-02-25T16:57:54.679Z,23.10
2019-02-25T17:00:30.009Z,25.67
2019-02-25T17:03:03.482Z,23.63
2019-02-25T17:05:33.066Z,24.03
2019-02-25T17:08:04.031Z,25.97
2019-02-25T17:10:35.188Z,25.93
2019-02-25T17:13:06.358Z,23.40
2019-02-25T17:15:37.266Z,24.27
2019-02-25T17:18:07.520Z,23.03
2019-02-25T17:20:37.714Z,24.37
2019-02-25T17:23:10.092Z,23.43
2019-02-25T17:25:40.729Z,23.73
2019-02-25T17:28:15.315Z,26.10
2019-02-25T17:30:45.593Z,28.17
2019-02-25T17:33:16.517Z,25.03
2019-02-25T17:35:47.615Z,25.53
2019-02-25T17:38:20.888Z,24.30
2019-02-25T17:40:50.669Z,24.53
2019-02-25T17:43:20.895Z,25.77
2019-02-25T17:45:51.090Z,30.07
2019-02-25T17:48:21.413Z,34.23
2019-02-25T17:50:53.422Z,39.57
2019-02-25T17:53:24.491Z,31.60
2019-02-25T17:55:57.234Z,31.80
2019-02-25T17:58:27.492Z,30.90
2019-02-25T18:00:59.256Z,34.07
2019-02-25T18:03:29.635Z,32.60
2019-02-25T18:06:00.619Z,31.10
2019-02-25T18:08:32.228Z,34.13
2019-02-25T18:11:03.174Z,46.17
2019-02-25T18:13:35.260Z,37.77
2019-02-25T18:16:05.632Z,37.07
2019-02-25T18:18:36.624Z,32.83
2019-02-25T18:21:08.412Z,35.57
2019-02-25T18:23:39.314Z,35.03
2019-02-25T18:26:09.521Z,37.23
2019-02-25T18:28:41.409Z,35.93
2019-02-25T18:31:13.503Z,37.80
2019-02-25T18:33:45.845Z,40.13
2019-02-25T18:36:15.885Z,40.17
2019-02-25T18:38:48.033Z,47.93
2019-02-25T18:41:17.955Z,50.03
2019-02-25T18:43:49.398Z,50.83
2019-02-25T18:46:21.231Z,51.83
2019-02-25T18:48:51.904Z,56.47
2019-02-25T18:51:24.430Z,61.13
2019-02-25T18:53:54.877Z,61.63
2019-02-25T18:56:25.834Z,65.07
2019-02-25T18:59:07.122Z,69.03
2019-02-25T19:01:27.752Z,67.80
2019-02-25T19:03:59.038Z,65.43
2019-02-25T19:06:29.443Z,55.10
2019-02-25T19:08:59.652Z,49.30
2019-02-25T19:11:29.852Z,46.70
2019-02-25T19:14:03.184Z,48.83
2019-02-25T19:16:31.975Z,47.63
2019-02-25T19:19:03.972Z,44.77
2019-02-25T19:21:34.218Z,46.40
2019-02-25T19:24:05.578Z,42.90
2019-02-25T19:26:38.066Z,40.47
2019-02-25T19:29:09.126Z,41.17
2019-02-25T19:31:39.873Z,42.30
2019-02-25T19:34:15.456Z,41.37
2019-02-25T19:36:43.092Z,41.63
2019-02-25T19:39:14.383Z,44.03
2019-02-25T19:41:47.169Z,38.77
2019-02-25T19:44:17.180Z,37.37
2019-02-25T19:46:48.706Z,35.10
2019-02-25T19:49:20.686Z,36.30
2019-02-25T19:51:52.766Z,37.03
2019-02-25T19:54:23.018Z,38.47
2019-02-25T19:56:55.463Z,37.40
2019-02-25T19:59:26.855Z,37.97
2019-02-25T20:01:57.175Z,39.37
2019-02-25T20:04:27.481Z,39.27
2019-02-25T20:06:58.510Z,37.33
2019-02-25T20:09:29.651Z,38.77
2019-02-25T20:12:01.874Z,41.87
2019-02-25T20:14:31.905Z,37.43
2019-02-25T20:17:02.759Z,36.00
2019-02-25T20:19:33.204Z,35.97
2019-02-25T20:22:03.407Z,35.60
2019-02-25T20:24:33.636Z,35.43
2019-02-25T20:27:05.184Z,34.67
2019-02-25T20:29:36.546Z,35.20
2019-02-25T20:32:07.717Z,35.17
2019-02-25T20:34:38.173Z,34.90
2019-02-25T20:37:08.370Z,35.03
2019-02-25T20:39:40.465Z,32.47
2019-02-25T20:42:10.474Z,36.17
2019-02-25T20:44:40.582Z,33.20
2019-02-25T20:47:10.640Z,33.23
2019-02-25T20:49:40.810Z,31.03
2019-02-25T20:52:11.770Z,31.07
2019-02-25T20:54:43.727Z,33.30
2019-02-25T20:57:16.352Z,31.30
2019-02-25T20:59:48.560Z,31.57
2019-02-25T21:02:19.389Z,31.73
2019-02-25T21:04:52.145Z,33.73
2019-02-25T21:07:22.153Z,32.37
2019-02-25T21:09:52.316Z,33.27
2019-02-25T21:12:22.422Z,31.17
2019-02-25T21:14:52.655Z,32.47
2019-02-25T21:17:22.787Z,29.73
2019-02-25T21:19:52.945Z,30.97
2019-02-25T21:22:23.298Z,31.97
2019-02-25T21:24:55.894Z,31.47
2019-02-25T21:27:30.204Z,30.20
2019-02-25T21:30:01.572Z,31.10
2019-02-25T21:32:31.403Z,29.20
2019-02-25T21:35:04.175Z,28.53
2019-02-25T21:37:33.585Z,30.13
2019-02-25T21:40:05.173Z,30.23
2019-02-25T21:42:35.960Z,31.57
2019-02-25T21:45:08.622Z,30.23
2019-02-25T21:47:38.813Z,30.97
2019-02-25T21:50:11.990Z,33.00
2019-02-25T21:52:43.467Z,33.60
2019-02-25T21:55:14.567Z,32.10
2019-02-25T21:57:44.781Z,33.13
2019-02-25T22:00:23.950Z,32.40
2019-02-25T22:02:54.142Z,33.37
2019-02-25T22:05:24.381Z,34.57
2019-02-25T22:07:57.118Z,33.83
2019-02-25T22:10:26.573Z,32.80
2019-02-25T22:12:56.780Z,32.50
2019-02-25T22:15:27.040Z,31.73
2019-02-25T22:17:57.227Z,31.00
2019-02-25T22:20:27.462Z,32.67
2019-02-25T22:22:59.152Z,32.53
2019-02-25T22:25:29.599Z,33.57
2019-02-25T22:28:01.637Z,34.27
2019-02-25T22:30:32.606Z,33.97
2019-02-25T22:33:04.707Z,32.13
2019-02-25T22:35:37.378Z,34.77
2019-02-25T22:38:06.757Z,35.17
2019-02-25T22:40:38.826Z,34.97
2019-02-25T22:43:10.073Z,35.80
2019-02-25T22:45:42.021Z,35.57
2019-02-25T22:48:13.953Z,36.00
2019-02-25T22:50:44.209Z,37.63
2019-02-25T22:53:14.382Z,35.87
2019-02-25T22:55:45.376Z,37.87
2019-02-25T22:58:17.054Z,37.83
2019-02-25T23:00:50.547Z,36.20
2019-02-25T23:03:22.722Z,37.43
2019-02-25T23:05:53.451Z,38.23
2019-02-25T23:08:26.027Z,38.57
2019-02-25T23:10:56.432Z,36.23
2019-02-25T23:13:28.116Z,35.60
2019-02-25T23:15:58.583Z,38.47
2019-02-25T23:18:28.787Z,39.53
2019-02-25T23:21:01.121Z,41.47
2019-02-25T23:23:32.910Z,41.17
2019-02-25T23:26:02.765Z,43.70
2019-02-25T23:28:32.897Z,43.40
2019-02-25T23:31:04.260Z,42.53
2019-02-25T23:33:38.155Z,43.77
2019-02-25T23:36:08.394Z,43.37
2019-02-25T23:38:38.529Z,41.83
2019-02-25T23:41:09.998Z,42.73
2019-02-25T23:43:42.271Z,44.97
2019-02-25T23:46:12.358Z,55.70
2019-02-25T23:48:44.621Z,50.07
2019-02-25T23:51:16.541Z,44.50
2019-02-25T23:53:47.048Z,42.83
2019-02-25T23:56:22.594Z,40.87
2019-02-25T23:58:51.794Z,36.33
